sensor_id;sensor_type;location;lat;lon;timestamp;temperature;humidity
65040;HTU21D;51606;45.000;38.612;2022-08-01T02:57:10;22.83;61.89
65040;HTU21D;51606;45.000;38.612;2022-08-01T02:59:38;22.90;61.89
65040;HTU21D;51606;45.000;38.612;2022-08-01T03:02:05;22.83;62.23
65040;HTU21D;51606;45.000;38.612;2022-08-01T03:04:37;22.72;62.65
65040;HTU21D;51606;45.000;38.612;2022-08-01T03:07:06;22.72;62.81
65040;HTU21D;51606;45.000;38.612;2022-08-01T03:09:36;22.78;62.90
65040;HTU21D;51606;45.000;38.612;2022-08-01T03:12:08;22.90;62.79
65040;HTU21D;51606;45.000;38.612;2022-08-01T03:14:38;22.96;62.78
65040;HTU21D;51606;45.000;38.612;2022-08-01T03:17:06;23.05;62.78
65040;HTU21D;51606;45.000;38.612;2022-08-01T03:19:34;23.11;62.74
65040;HTU21D;51606;45.000;38.612;2022-08-01T03:22:02;23.17;62.82
65040;HTU21D;51606;45.000;38.612;2022-08-01T03:24:33;23.30;62.73
65040;HTU21D;51606;45.000;38.612;2022-08-01T03:27:01;23.39;62.72
65040;HTU21D;51606;45.000;38.612;2022-08-01T03:29:29;23.46;62.76
65040;HTU21D;51606;45.000;38.612;2022-08-01T03:31:58;23.61;62.73
65040;HTU21D;51606;45.000;38.612;2022-08-01T03:34:26;24.12;62.44
65040;HTU21D;51606;45.000;38.612;2022-08-01T03:36:59;24.85;61.27
65040;HTU21D;51606;45.000;38.612;2022-08-01T03:39:31;25.20;60.86
65040;HTU21D;51606;45.000;38.612;2022-08-01T03:42:05;25.50;60.67
65040;HTU21D;51606;45.000;38.612;2022-08-01T03:44:33;25.73;60.56
65040;HTU21D;51606;45.000;38.612;2022-08-01T03:47:09;25.96;60.54
65040;HTU21D;51606;45.000;38.612;2022-08-01T03:49:41;26.42;60.25
65040;HTU21D;51606;45.000;38.612;2022-08-01T03:52:09;26.94;59.64
65040;HTU21D;51606;45.000;38.612;2022-08-01T03:54:38;27.43;59.22
65040;HTU21D;51606;45.000;38.612;2022-08-01T03:57:07;28.35;58.17
65040;HTU21D;51606;45.000;38.612;2022-08-01T03:59:35;29.44;56.98
65040;HTU21D;51606;45.000;38.612;2022-08-01T04:02:03;30.47;55.98
65040;HTU21D;51606;45.000;38.612;2022-08-01T04:04:30;31.31;55.34
65040;HTU21D;51606;45.000;38.612;2022-08-01T04:06:56;32.12;54.72
65040;HTU21D;51606;45.000;38.612;2022-08-01T04:09:25;32.96;54.10
65040;HTU21D;51606;45.000;38.612;2022-08-01T04:11:52;33.67;53.58
65040;HTU21D;51606;45.000;38.612;2022-08-01T04:14:18;34.40;53.04
65040;HTU21D;51606;45.000;38.612;2022-08-01T04:16:45;34.93;52.78
65040;HTU21D;51606;45.000;38.612;2022-08-01T04:19:11;35.26;52.77
65040;HTU21D;51606;45.000;38.612;2022-08-01T04:21:37;35.75;52.42
65040;HTU21D;51606;45.000;38.612;2022-08-01T04:24:11;36.26;51.91
65040;HTU21D;51606;45.000;38.612;2022-08-01T04:26:40;36.71;51.67
65040;HTU21D;51606;45.000;38.612;2022-08-01T04:29:08;37.15;51.34
65040;HTU21D;51606;45.000;38.612;2022-08-01T04:31:36;37.54;51.05
65040;HTU21D;51606;45.000;38.612;2022-08-01T04:34:04;37.90;50.81
65040;HTU21D;51606;45.000;38.612;2022-08-01T04:36:33;38.46;50.21
65040;HTU21D;51606;45.000;38.612;2022-08-01T04:39:01;38.63;50.26
65040;HTU21D;51606;45.000;38.612;2022-08-01T04:41:30;39.09;49.80
65040;HTU21D;51606;45.000;38.612;2022-08-01T04:43:59;39.40;49.46
65040;HTU21D;51606;45.000;38.612;2022-08-01T04:46:32;39.55;49.51
65040;HTU21D;51606;45.000;38.612;2022-08-01T04:49:04;39.81;49.28
65040;HTU21D;51606;45.000;38.612;2022-08-01T04:51:32;39.81;49.39
65040;HTU21D;51606;45.000;38.612;2022-08-01T04:53:58;39.77;49.60
65040;HTU21D;51606;45.000;38.612;2022-08-01T04:56:27;40.26;48.95
65040;HTU21D;51606;45.000;38.612;2022-08-01T04:58:53;40.70;48.34
65040;HTU21D;51606;45.000;38.612;2022-08-01T05:01:55;40.89;48.12
65040;HTU21D;51606;45.000;38.612;2022-08-01T05:04:21;40.82;48.34
65040;HTU21D;51606;45.000;38.612;2022-08-01T05:06:48;40.54;48.64
65040;HTU21D;51606;45.000;38.612;2022-08-01T05:09:14;40.26;48.99
65040;HTU21D;51606;45.000;38.612;2022-08-01T05:11:41;40.16;49.01
65040;HTU21D;51606;45.000;38.612;2022-08-01T05:14:22;39.97;49.21
65040;HTU21D;51606;45.000;38.612;2022-08-01T05:16:49;40.39;48.50
65040;HTU21D;51606;45.000;38.612;2022-08-01T05:19:15;40.81;47.83
65040;HTU21D;51606;45.000;38.612;2022-08-01T05:21:42;40.72;47.92
65040;HTU21D;51606;45.000;38.612;2022-08-01T05:24:17;40.21;48.49
65040;HTU21D;51606;45.000;38.612;2022-08-01T05:26:46;39.79;48.93
65040;HTU21D;51606;45.000;38.612;2022-08-01T05:29:12;39.64;49.00
65040;HTU21D;51606;45.000;38.612;2022-08-01T05:31:39;39.26;49.24
65040;HTU21D;51606;45.000;38.612;2022-08-01T05:34:05;39.25;49.23
65040;HTU21D;51606;45.000;38.612;2022-08-01T05:36:32;39.74;48.26
65040;HTU21D;51606;45.000;38.612;2022-08-01T05:38:58;40.24;47.44
65040;HTU21D;51606;45.000;38.612;2022-08-01T05:41:25;40.08;47.47
65040;HTU21D;51606;45.000;38.612;2022-08-01T05:43:52;39.53;48.26
65040;HTU21D;51606;45.000;38.612;2022-08-01T05:46:18;39.58;48.18
65040;HTU21D;51606;45.000;38.612;2022-08-01T05:48:44;40.13;47.28
65040;HTU21D;51606;45.000;38.612;2022-08-01T05:51:11;40.40;46.77
65040;HTU21D;51606;45.000;38.612;2022-08-01T05:53:37;39.99;47.25
65040;HTU21D;51606;45.000;38.612;2022-08-01T05:56:04;39.63;47.73
65040;HTU21D;51606;45.000;38.612;2022-08-01T05:58:30;39.54;47.71
65040;HTU21D;51606;45.000;38.612;2022-08-01T06:00:58;39.42;47.77
65040;HTU21D;51606;45.000;38.612;2022-08-01T06:03:24;39.88;47.02
65040;HTU21D;51606;45.000;38.612;2022-08-01T06:05:53;40.07;46.54
65040;HTU21D;51606;45.000;38.612;2022-08-01T06:08:19;40.24;46.31
65040;HTU21D;51606;45.000;38.612;2022-08-01T06:10:46;40.26;46.31
65040;HTU21D;51606;45.000;38.612;2022-08-01T06:13:12;40.87;45.41
65040;HTU21D;51606;45.000;38.612;2022-08-01T06:15:39;41.24;44.84
65040;HTU21D;51606;45.000;38.612;2022-08-01T06:18:05;41.47;44.65
65040;HTU21D;51606;45.000;38.612;2022-08-01T06:20:32;41.72;44.28
65040;HTU21D;51606;45.000;38.612;2022-08-01T06:22:58;41.42;44.83
65040;HTU21D;51606;45.000;38.612;2022-08-01T06:25:24;41.66;44.45
65040;HTU21D;51606;45.000;38.612;2022-08-01T06:27:52;41.40;44.80
65040;HTU21D;51606;45.000;38.612;2022-08-01T06:30:18;40.60;45.97
65040;HTU21D;51606;45.000;38.612;2022-08-01T06:32:50;40.67;45.76
65040;HTU21D;51606;45.000;38.612;2022-08-01T06:35:17;40.85;45.39
65040;HTU21D;51606;45.000;38.612;2022-08-01T06:37:43;41.00;45.08
65040;HTU21D;51606;45.000;38.612;2022-08-01T06:40:11;40.55;45.66
65040;HTU21D;51606;45.000;38.612;2022-08-01T06:42:38;40.03;46.51
65040;HTU21D;51606;45.000;38.612;2022-08-01T06:45:06;40.08;46.25
65040;HTU21D;51606;45.000;38.612;2022-08-01T06:47:33;39.94;46.38
65040;HTU21D;51606;45.000;38.612;2022-08-01T06:49:59;39.87;46.46
65040;HTU21D;51606;45.000;38.612;2022-08-01T06:52:26;39.94;46.34
65040;HTU21D;51606;45.000;38.612;2022-08-01T06:54:52;39.89;46.38
65040;HTU21D;51606;45.000;38.612;2022-08-01T06:57:19;39.92;46.40
65040;HTU21D;51606;45.000;38.612;2022-08-01T06:59:45;39.93;46.42
65040;HTU21D;51606;45.000;38.612;2022-08-01T07:02:12;40.21;45.98
65040;HTU21D;51606;45.000;38.612;2022-08-01T07:04:38;40.23;45.98
65040;HTU21D;51606;45.000;38.612;2022-08-01T07:07:04;40.00;46.35
65040;HTU21D;51606;45.000;38.612;2022-08-01T07:09:31;39.73;46.81
65040;HTU21D;51606;45.000;38.612;2022-08-01T07:11:57;39.70;46.83
65040;HTU21D;51606;45.000;38.612;2022-08-01T07:14:24;39.54;47.05
65040;HTU21D;51606;45.000;38.612;2022-08-01T07:16:50;39.48;47.11
65040;HTU21D;51606;45.000;38.612;2022-08-01T07:19:17;39.39;47.20
65040;HTU21D;51606;45.000;38.612;2022-08-01T07:21:44;39.28;47.30
65040;HTU21D;51606;45.000;38.612;2022-08-01T07:24:13;39.12;47.56
65040;HTU21D;51606;45.000;38.612;2022-08-01T07:26:44;39.11;47.45
65040;HTU21D;51606;45.000;38.612;2022-08-01T07:29:10;38.86;47.75
65040;HTU21D;51606;45.000;38.612;2022-08-01T07:31:36;38.75;47.91
65040;HTU21D;51606;45.000;38.612;2022-08-01T07:34:03;38.51;48.13
65040;HTU21D;51606;45.000;38.612;2022-08-01T07:36:29;38.19;48.57
65040;HTU21D;51606;45.000;38.612;2022-08-01T07:38:55;38.05;48.67
65040;HTU21D;51606;45.000;38.612;2022-08-01T07:41:22;38.14;48.48
65040;HTU21D;51606;45.000;38.612;2022-08-01T07:43:49;38.36;48.12
65040;HTU21D;51606;45.000;38.612;2022-08-01T07:46:16;38.50;47.88
65040;HTU21D;51606;45.000;38.612;2022-08-01T07:48:42;38.49;47.86
65040;HTU21D;51606;45.000;38.612;2022-08-01T07:51:09;38.35;48.17
65040;HTU21D;51606;45.000;38.612;2022-08-01T07:53:36;38.53;47.96
65040;HTU21D;51606;45.000;38.612;2022-08-01T07:56:03;38.85;47.54
65040;HTU21D;51606;45.000;38.612;2022-08-01T07:58:33;38.96;47.34
65040;HTU21D;51606;45.000;38.612;2022-08-01T08:00:59;38.89;47.52
65040;HTU21D;51606;45.000;38.612;2022-08-01T08:03:25;38.77;47.75
65040;HTU21D;51606;45.000;38.612;2022-08-01T08:05:52;38.67;47.89
65040;HTU21D;51606;45.000;38.612;2022-08-01T08:08:18;38.45;48.17
65040;HTU21D;51606;45.000;38.612;2022-08-01T08:10:45;38.16;48.55
65040;HTU21D;51606;45.000;38.612;2022-08-01T08:13:11;37.92;48.82
65040;HTU21D;51606;45.000;38.612;2022-08-01T08:15:38;38.04;48.60
65040;HTU21D;51606;45.000;38.612;2022-08-01T08:18:04;37.96;48.59
65040;HTU21D;51606;45.000;38.612;2022-08-01T08:20:31;37.76;48.86
65040;HTU21D;51606;45.000;38.612;2022-08-01T08:22:58;37.84;48.71
65040;HTU21D;51606;45.000;38.612;2022-08-01T08:25:25;37.91;48.50
65040;HTU21D;51606;45.000;38.612;2022-08-01T08:27:52;37.82;48.60
65040;HTU21D;51606;45.000;38.612;2022-08-01T08:30:18;37.70;48.76
65040;HTU21D;51606;45.000;38.612;2022-08-01T08:32:45;37.89;48.47
65040;HTU21D;51606;45.000;38.612;2022-08-01T08:35:11;38.12;48.12
65040;HTU21D;51606;45.000;38.612;2022-08-01T08:37:38;38.44;47.60
65040;HTU21D;51606;45.000;38.612;2022-08-01T08:40:06;38.66;47.25
65040;HTU21D;51606;45.000;38.612;2022-08-01T08:42:33;38.32;47.73
65040;HTU21D;51606;45.000;38.612;2022-08-01T08:45:00;38.17;48.02
65040;HTU21D;51606;45.000;38.612;2022-08-01T08:47:27;38.28;47.76
65040;HTU21D;51606;45.000;38.612;2022-08-01T08:49:55;38.44;47.44
65040;HTU21D;51606;45.000;38.612;2022-08-01T08:52:22;38.58;47.16
65040;HTU21D;51606;45.000;38.612;2022-08-01T08:54:50;38.51;47.20
65040;HTU21D;51606;45.000;38.612;2022-08-01T08:57:20;38.36;47.46
65040;HTU21D;51606;45.000;38.612;2022-08-01T08:59:47;38.53;47.13
65040;HTU21D;51606;45.000;38.612;2022-08-01T09:02:14;38.44;47.25
65040;HTU21D;51606;45.000;38.612;2022-08-01T09:04:40;38.46;47.23
65040;HTU21D;51606;45.000;38.612;2022-08-01T09:07:07;38.35;47.34
65040;HTU21D;51606;45.000;38.612;2022-08-01T09:09:34;38.23;47.54
65040;HTU21D;51606;45.000;38.612;2022-08-01T09:12:00;38.43;47.22
65040;HTU21D;51606;45.000;38.612;2022-08-01T09:14:27;38.30;47.41
65040;HTU21D;51606;45.000;38.612;2022-08-01T09:17:04;38.04;47.78
65040;HTU21D;51606;45.000;38.612;2022-08-01T09:19:42;37.86;48.03
65040;HTU21D;51606;45.000;38.612;2022-08-01T09:22:11;37.92;47.92
65040;HTU21D;51606;45.000;38.612;2022-08-01T09:24:39;37.96;47.81
65040;HTU21D;51606;45.000;38.612;2022-08-01T09:27:18;37.96;47.76
65040;HTU21D;51606;45.000;38.612;2022-08-01T09:29:44;37.64;48.16
65040;HTU21D;51606;45.000;38.612;2022-08-01T09:32:11;37.23;48.69
65040;HTU21D;51606;45.000;38.612;2022-08-01T09:34:38;37.01;48.94
65040;HTU21D;51606;45.000;38.612;2022-08-01T09:37:04;37.17;48.62
65040;HTU21D;51606;45.000;38.612;2022-08-01T09:39:34;37.00;48.78
65040;HTU21D;51606;45.000;38.612;2022-08-01T09:42:24;36.80;48.96
65040;HTU21D;51606;45.000;38.612;2022-08-01T09:44:51;36.41;49.50
65040;HTU21D;51606;45.000;38.612;2022-08-01T09:47:19;35.94;50.16
65040;HTU21D;51606;45.000;38.612;2022-08-01T09:49:56;35.47;50.78
65040;HTU21D;51606;45.000;38.612;2022-08-01T09:52:25;35.06;51.27
65040;HTU21D;51606;45.000;38.612;2022-08-01T09:54:59;34.67;51.64
65040;HTU21D;51606;45.000;38.612;2022-08-01T09:57:27;34.40;51.88
65040;HTU21D;51606;45.000;38.612;2022-08-01T09:59:55;34.23;51.95
65040;HTU21D;51606;45.000;38.612;2022-08-01T10:02:36;34.11;51.95
65040;HTU21D;51606;45.000;38.612;2022-08-01T10:05:05;33.95;52.03
65040;HTU21D;51606;45.000;38.612;2022-08-01T10:07:32;33.73;52.21
65040;HTU21D;51606;45.000;38.612;2022-08-01T10:10:10;33.58;52.33
65040;HTU21D;51606;45.000;38.612;2022-08-01T10:12:37;33.42;52.46
65040;HTU21D;51606;45.000;38.612;2022-08-01T10:15:15;33.34;52.49
65040;HTU21D;51606;45.000;38.612;2022-08-01T10:17:55;33.28;52.46
65040;HTU21D;51606;45.000;38.612;2022-08-01T10:20:24;33.20;52.45
65040;HTU21D;51606;45.000;38.612;2022-08-01T10:22:53;33.11;52.49
65040;HTU21D;51606;45.000;38.612;2022-08-01T10:25:21;32.96;52.62
65040;HTU21D;51606;45.000;38.612;2022-08-01T10:27:52;32.88;52.65
65040;HTU21D;51606;45.000;38.612;2022-08-01T10:30:23;32.87;52.59
65040;HTU21D;51606;45.000;38.612;2022-08-01T10:32:51;32.82;52.58
65040;HTU21D;51606;45.000;38.612;2022-08-01T10:35:20;32.78;52.59
65040;HTU21D;51606;45.000;38.612;2022-08-01T10:37:47;32.79;52.56
65040;HTU21D;51606;45.000;38.612;2022-08-01T10:40:14;32.82;52.49
65040;HTU21D;51606;45.000;38.612;2022-08-01T10:42:44;32.92;52.35
65040;HTU21D;51606;45.000;38.612;2022-08-01T10:45:14;33.07;52.11
65040;HTU21D;51606;45.000;38.612;2022-08-01T10:50:35;33.70;51.18
65040;HTU21D;51606;45.000;38.612;2022-08-01T10:53:07;34.02;50.73
65040;HTU21D;51606;45.000;38.612;2022-08-01T10:58:25;34.74;49.92
65040;HTU21D;51606;45.000;38.612;2022-08-01T11:01:26;35.28;49.25
65040;HTU21D;51606;45.000;38.612;2022-08-01T11:04:05;35.52;49.13
65040;HTU21D;51606;45.000;38.612;2022-08-01T11:06:36;35.92;48.78
65040;HTU21D;51606;45.000;38.612;2022-08-01T11:09:20;36.22;48.57
65040;HTU21D;51606;45.000;38.612;2022-08-01T11:11:57;36.23;48.76
65040;HTU21D;51606;45.000;38.612;2022-08-01T11:14:23;35.86;49.37
65040;HTU21D;51606;45.000;38.612;2022-08-01T11:16:50;35.34;50.33
65040;HTU21D;51606;45.000;38.612;2022-08-01T11:19:16;34.89;51.13
65040;HTU21D;51606;45.000;38.612;2022-08-01T11:29:43;34.14;52.02
65040;HTU21D;51606;45.000;38.612;2022-08-01T11:32:26;34.04;52.11
65040;HTU21D;51606;45.000;38.612;2022-08-01T11:34:54;33.93;52.24
65040;HTU21D;51606;45.000;38.612;2022-08-01T11:37:25;33.82;52.37
65040;HTU21D;51606;45.000;38.612;2022-08-01T11:40:28;33.59;52.62
65040;HTU21D;51606;45.000;38.612;2022-08-01T11:45:51;33.23;53.15
65040;HTU21D;51606;45.000;38.612;2022-08-01T11:48:25;32.97;53.61
65040;HTU21D;51606;45.000;38.612;2022-08-01T11:50:56;32.69;54.13
65040;HTU21D;51606;45.000;38.612;2022-08-01T11:53:23;32.48;54.52
65040;HTU21D;51606;45.000;38.612;2022-08-01T11:55:53;32.41;54.77
65040;HTU21D;51606;45.000;38.612;2022-08-01T11:58:24;32.54;54.63
65040;HTU21D;51606;45.000;38.612;2022-08-01T12:00:52;32.86;54.19
65040;HTU21D;51606;45.000;38.612;2022-08-01T12:03:29;33.14;53.89
65040;HTU21D;51606;45.000;38.612;2022-08-01T12:05:57;33.44;53.52
65040;HTU21D;51606;45.000;38.612;2022-08-01T12:08:26;33.64;53.34
65040;HTU21D;51606;45.000;38.612;2022-08-01T12:10:52;33.73;53.36
65040;HTU21D;51606;45.000;38.612;2022-08-01T12:13:19;33.94;53.15
65040;HTU21D;51606;45.000;38.612;2022-08-01T12:15:47;34.05;53.09
65040;HTU21D;51606;45.000;38.612;2022-08-01T12:18:16;33.99;53.33
65040;HTU21D;51606;45.000;38.612;2022-08-01T12:20:44;33.90;53.63
65040;HTU21D;51606;45.000;38.612;2022-08-01T12:23:13;33.86;53.80
65040;HTU21D;51606;45.000;38.612;2022-08-01T12:25:40;33.76;54.08
65040;HTU21D;51606;45.000;38.612;2022-08-01T12:28:11;33.70;54.27
65040;HTU21D;51606;45.000;38.612;2022-08-01T12:30:40;33.64;54.39
65040;HTU21D;51606;45.000;38.612;2022-08-01T12:33:08;33.50;54.68
65040;HTU21D;51606;45.000;38.612;2022-08-01T12:35:36;33.20;55.21
65040;HTU21D;51606;45.000;38.612;2022-08-01T12:38:14;32.90;55.72
65040;HTU21D;51606;45.000;38.612;2022-08-01T12:40:43;32.62;56.16
65040;HTU21D;51606;45.000;38.612;2022-08-01T12:43:16;32.39;56.53
65040;HTU21D;51606;45.000;38.612;2022-08-01T12:45:43;32.10;56.90
65040;HTU21D;51606;45.000;38.612;2022-08-01T12:48:11;31.74;57.41
65040;HTU21D;51606;45.000;38.612;2022-08-01T12:50:46;31.45;57.75
65040;HTU21D;51606;45.000;38.612;2022-08-01T12:53:13;31.20;57.99
65040;HTU21D;51606;45.000;38.612;2022-08-01T12:55:50;31.02;58.15
65040;HTU21D;51606;45.000;38.612;2022-08-01T12:58:17;30.93;58.21
65040;HTU21D;51606;45.000;38.612;2022-08-01T13:00:46;30.86;58.16
65040;HTU21D;51606;45.000;38.612;2022-08-01T13:03:20;30.89;58.06
65040;HTU21D;51606;45.000;38.612;2022-08-01T13:05:48;30.84;58.04
65040;HTU21D;51606;45.000;38.612;2022-08-01T13:08:20;30.77;58.12
65040;HTU21D;51606;45.000;38.612;2022-08-01T13:10:48;30.71;58.16
65040;HTU21D;51606;45.000;38.612;2022-08-01T13:13:17;30.62;58.31
65040;HTU21D;51606;45.000;38.612;2022-08-01T13:15:44;30.50;58.45
65040;HTU21D;51606;45.000;38.612;2022-08-01T13:18:29;30.48;58.53
65040;HTU21D;51606;45.000;38.612;2022-08-01T13:21:09;30.47;58.51
65040;HTU21D;51606;45.000;38.612;2022-08-01T13:23:37;30.47;58.44
65040;HTU21D;51606;45.000;38.612;2022-08-01T13:26:04;30.48;58.47
65040;HTU21D;51606;45.000;38.612;2022-08-01T13:28:30;30.45;58.58
65040;HTU21D;51606;45.000;38.612;2022-08-01T13:31:00;30.41;58.73
65040;HTU21D;51606;45.000;38.612;2022-08-01T13:33:39;30.24;58.97
65040;HTU21D;51606;45.000;38.612;2022-08-01T13:36:09;29.82;59.54
65040;HTU21D;51606;45.000;38.612;2022-08-01T13:38:35;29.47;60.04
65040;HTU21D;51606;45.000;38.612;2022-08-01T13:41:21;29.13;60.47
65040;HTU21D;51606;45.000;38.612;2022-08-01T13:43:47;28.80;60.83
65040;HTU21D;51606;45.000;38.612;2022-08-01T13:46:14;28.53;61.15
65040;HTU21D;51606;45.000;38.612;2022-08-01T13:48:40;28.41;61.02
65040;HTU21D;51606;45.000;38.612;2022-08-01T13:51:07;28.38;60.67
65040;HTU21D;51606;45.000;38.612;2022-08-01T13:53:33;28.35;60.38
65040;HTU21D;51606;45.000;38.612;2022-08-01T13:56:00;28.30;60.22
65040;HTU21D;51606;45.000;38.612;2022-08-01T13:58:26;28.31;59.94
65040;HTU21D;51606;45.000;38.612;2022-08-01T14:00:55;28.45;59.51
65040;HTU21D;51606;45.000;38.612;2022-08-01T14:03:22;28.47;59.31
65040;HTU21D;51606;45.000;38.612;2022-08-01T14:05:48;28.53;58.99
65040;HTU21D;51606;45.000;38.612;2022-08-01T14:08:15;28.48;58.89
65040;HTU21D;51606;45.000;38.612;2022-08-01T14:10:41;28.31;59.03
65040;HTU21D;51606;45.000;38.612;2022-08-01T14:13:08;28.14;59.15
65040;HTU21D;51606;45.000;38.612;2022-08-01T14:15:34;28.04;59.18
65040;HTU21D;51606;45.000;38.612;2022-08-01T14:18:01;27.98;59.15
65040;HTU21D;51606;45.000;38.612;2022-08-01T14:20:27;27.97;59.06
65040;HTU21D;51606;45.000;38.612;2022-08-01T14:22:53;27.96;58.95
65040;HTU21D;51606;45.000;38.612;2022-08-01T14:25:20;27.98;58.82
65040;HTU21D;51606;45.000;38.612;2022-08-01T14:27:46;27.82;58.93
65040;HTU21D;51606;45.000;38.612;2022-08-01T14:30:14;27.72;58.98
65040;HTU21D;51606;45.000;38.612;2022-08-01T14:32:40;27.70;58.87
65040;HTU21D;51606;45.000;38.612;2022-08-01T14:35:07;27.81;58.54
65040;HTU21D;51606;45.000;38.612;2022-08-01T14:37:33;27.97;58.13
65040;HTU21D;51606;45.000;38.612;2022-08-01T14:40:01;28.15;57.71
65040;HTU21D;51606;45.000;38.612;2022-08-01T14:42:33;28.34;57.32
65040;HTU21D;51606;45.000;38.612;2022-08-01T14:44:59;28.45;57.04
65040;HTU21D;51606;45.000;38.612;2022-08-01T14:47:26;28.49;56.95
65040;HTU21D;51606;45.000;38.612;2022-08-01T14:49:52;28.50;56.90
65040;HTU21D;51606;45.000;38.612;2022-08-01T14:52:19;28.54;56.81
65040;HTU21D;51606;45.000;38.612;2022-08-01T14:54:46;28.57;56.72
65040;HTU21D;51606;45.000;38.612;2022-08-01T14:57:12;28.61;56.63
65040;HTU21D;51606;45.000;38.612;2022-08-01T14:59:39;28.67;56.55
65040;HTU21D;51606;45.000;38.612;2022-08-01T15:02:06;28.75;56.45
65040;HTU21D;51606;45.000;38.612;2022-08-01T15:04:32;28.80;56.39
65040;HTU21D;51606;45.000;38.612;2022-08-01T15:06:59;28.84;56.35
65040;HTU21D;51606;45.000;38.612;2022-08-01T15:09:25;28.84;56.38
65040;HTU21D;51606;45.000;38.612;2022-08-01T15:11:51;28.79;56.45
65040;HTU21D;51606;45.000;38.612;2022-08-01T15:14:18;28.69;56.64
65040;HTU21D;51606;45.000;38.612;2022-08-01T15:17:02;28.45;57.03
65040;HTU21D;51606;45.000;38.612;2022-08-01T15:19:29;28.23;57.40
65040;HTU21D;51606;45.000;38.612;2022-08-01T15:21:55;28.04;57.68
65040;HTU21D;51606;45.000;38.612;2022-08-01T15:24:22;27.85;57.93
65040;HTU21D;51606;45.000;38.612;2022-08-01T15:26:48;27.67;58.12
65040;HTU21D;51606;45.000;38.612;2022-08-01T15:29:14;27.52;58.27
65040;HTU21D;51606;45.000;38.612;2022-08-01T15:31:41;27.38;58.38
65040;HTU21D;51606;45.000;38.612;2022-08-01T15:34:07;27.26;58.48
65040;HTU21D;51606;45.000;38.612;2022-08-01T15:36:42;27.17;58.48
65040;HTU21D;51606;45.000;38.612;2022-08-01T15:39:21;27.11;58.47
65040;HTU21D;51606;45.000;38.612;2022-08-01T15:41:47;27.06;58.47
65040;HTU21D;51606;45.000;38.612;2022-08-01T15:44:14;26.97;58.47
65040;HTU21D;51606;45.000;38.612;2022-08-01T15:46:40;26.91;58.45
65040;HTU21D;51606;45.000;38.612;2022-08-01T15:49:07;26.83;58.44
65040;HTU21D;51606;45.000;38.612;2022-08-01T15:51:33;26.75;58.44
65040;HTU21D;51606;45.000;38.612;2022-08-01T15:54:00;26.67;58.43
65040;HTU21D;51606;45.000;38.612;2022-08-01T15:56:34;26.58;58.42
65040;HTU21D;51606;45.000;38.612;2022-08-01T15:59:01;26.49;58.42
65040;HTU21D;51606;45.000;38.612;2022-08-01T16:01:30;26.42;58.41
65040;HTU21D;51606;45.000;38.612;2022-08-01T16:04:10;26.36;58.41
65040;HTU21D;51606;45.000;38.612;2022-08-01T16:06:39;26.26;58.45
65040;HTU21D;51606;45.000;38.612;2022-08-01T16:09:05;26.17;58.55
65040;HTU21D;51606;45.000;38.612;2022-08-01T16:11:32;26.07;58.63
65040;HTU21D;51606;45.000;38.612;2022-08-01T16:13:58;25.86;58.96
65040;HTU21D;51606;45.000;38.612;2022-08-01T16:16:25;25.63;59.35
65040;HTU21D;51606;45.000;38.612;2022-08-01T16:18:52;25.32;59.86
65040;HTU21D;51606;45.000;38.612;2022-08-01T16:21:18;24.99;60.38
65040;HTU21D;51606;45.000;38.612;2022-08-01T16:23:45;24.70;60.80
65040;HTU21D;51606;45.000;38.612;2022-08-01T16:26:12;24.43;61.07
65040;HTU21D;51606;45.000;38.612;2022-08-01T16:28:38;24.23;61.21
65040;HTU21D;51606;45.000;38.612;2022-08-01T16:31:05;24.04;61.28
65040;HTU21D;51606;45.000;38.612;2022-08-01T16:33:32;23.87;61.34
65040;HTU21D;51606;45.000;38.612;2022-08-01T18:10:41;21.30;63.67
65040;HTU21D;51606;45.000;38.612;2022-08-01T18:13:08;21.24;63.83
65040;HTU21D;51606;45.000;38.612;2022-08-01T18:15:35;21.17;64.01
65040;HTU21D;51606;45.000;38.612;2022-08-01T18:18:05;21.11;64.18
65040;HTU21D;51606;45.000;38.612;2022-08-01T18:20:31;21.09;64.27
65040;HTU21D;51606;45.000;38.612;2022-08-01T18:22:58;21.07;64.36
65040;HTU21D;51606;45.000;38.612;2022-08-01T18:25:24;21.07;64.41
65040;HTU21D;51606;45.000;38.612;2022-08-01T18:27:52;21.07;64.46
65040;HTU21D;51606;45.000;38.612;2022-08-01T18:30:18;21.03;64.55
65040;HTU21D;51606;45.000;38.612;2022-08-01T18:32:44;21.01;64.66
65040;HTU21D;51606;45.000;38.612;2022-08-01T18:35:10;20.98;64.76
65040;HTU21D;51606;45.000;38.612;2022-08-01T18:37:37;20.95;64.84
65040;HTU21D;51606;45.000;38.612;2022-08-01T18:40:04;20.94;64.94
65040;HTU21D;51606;45.000;38.612;2022-08-01T18:42:30;20.98;64.93
65040;HTU21D;51606;45.000;38.612;2022-08-01T18:44:57;20.95;64.92
65040;HTU21D;51606;45.000;38.612;2022-08-01T18:47:23;20.91;65.04
65040;HTU21D;51606;45.000;38.612;2022-08-01T18:49:49;20.89;65.17
65040;HTU21D;51606;45.000;38.612;2022-08-01T18:52:16;20.84;65.30
65040;HTU21D;51606;45.000;38.612;2022-08-01T18:54:42;20.83;65.35
65040;HTU21D;51606;45.000;38.612;2022-08-01T18:57:08;20.86;65.36
65040;HTU21D;51606;45.000;38.612;2022-08-01T18:59:35;20.90;65.25
65040;HTU21D;51606;45.000;38.612;2022-08-01T19:02:01;20.92;65.22
65040;HTU21D;51606;45.000;38.612;2022-08-01T19:04:27;20.94;65.22
65040;HTU21D;51606;45.000;38.612;2022-08-01T19:06:54;20.98;65.22
65040;HTU21D;51606;45.000;38.612;2022-08-01T19:09:20;21.01;65.21
65040;HTU21D;51606;45.000;38.612;2022-08-01T19:11:48;21.03;65.19
65040;HTU21D;51606;45.000;38.612;2022-08-01T19:14:14;21.06;65.22
65040;HTU21D;51606;45.000;38.612;2022-08-01T19:16:41;21.07;65.24
65040;HTU21D;51606;45.000;38.612;2022-08-01T19:19:07;21.09;65.28
65040;HTU21D;51606;45.000;38.612;2022-08-01T19:21:37;21.09;65.35
65040;HTU21D;51606;45.000;38.612;2022-08-01T19:24:05;21.09;65.40
65040;HTU21D;51606;45.000;38.612;2022-08-01T19:27:00;21.11;65.50
65040;HTU21D;51606;45.000;38.612;2022-08-01T19:29:33;21.09;65.51
65040;HTU21D;51606;45.000;38.612;2022-08-01T19:32:01;21.09;65.57
65040;HTU21D;51606;45.000;38.612;2022-08-01T19:37:31;21.09;65.63
65040;HTU21D;51606;45.000;38.612;2022-08-01T19:39:58;21.09;65.70
65040;HTU21D;51606;45.000;38.612;2022-08-01T19:42:26;21.10;65.78
65040;HTU21D;51606;45.000;38.612;2022-08-01T19:44:53;21.09;65.84
65040;HTU21D;51606;45.000;38.612;2022-08-01T19:47:19;21.08;65.88
65040;HTU21D;51606;45.000;38.612;2022-08-01T19:49:46;21.08;65.96
65040;HTU21D;51606;45.000;38.612;2022-08-01T19:52:16;21.09;66.01
65040;HTU21D;51606;45.000;38.612;2022-08-01T19:54:56;21.09;66.02
65040;HTU21D;51606;45.000;38.612;2022-08-01T19:57:23;21.07;66.09
65040;HTU21D;51606;45.000;38.612;2022-08-01T19:59:53;21.03;66.23
65040;HTU21D;51606;45.000;38.612;2022-08-01T20:02:21;21.00;66.33